sensor_id;sensor_type;location;lat;lon;timestamp;pressure;altitude;pressure_sealevel;temperature;humidity
75972;BME280;64651;47.540;19.088;2024-03-06T00:02:29;100237.94;;;7.53;85.45
75972;BME280;64651;47.540;19.088;2024-03-06T00:07:32;100247.97;;;7.38;85.85
75972;BME280;64651;47.540;19.088;2024-03-06T00:12:34;100247.03;;;7.27;86.63
75972;BME280;64651;47.540;19.088;2024-03-06T00:17:37;100250.41;;;7.39;86.49
75972;BME280;64651;47.540;19.088;2024-03-06T00:22:39;100253.06;;;7.24;86.91
75972;BME280;64651;47.540;19.088;2024-03-06T00:27:42;100255.97;;;7.12;87.36
75972;BME280;64651;47.540;19.088;2024-03-06T00:32:44;100260.69;;;7.22;87.60
75972;BME280;64651;47.540;19.088;2024-03-06T00:37:46;100261.72;;;7.16;87.30
75972;BME280;64651;47.540;19.088;2024-03-06T00:42:48;100279.59;;;6.97;88.14
75972;BME280;64651;47.540;19.088;2024-03-06T00:47:51;100275.63;;;7.09;88.09
75972;BME280;64651;47.540;19.088;2024-03-06T00:52:53;100279.19;;;7.10;87.88
75972;BME280;64651;47.540;19.088;2024-03-06T00:57:55;100269.16;;;7.20;87.65
75972;BME280;64651;47.540;19.088;2024-03-06T01:02:57;100273.66;;;7.31;87.13
75972;BME280;64651;47.540;19.088;2024-03-06T01:07:59;100279.62;;;7.28;87.36
75972;BME280;64651;47.540;19.088;2024-03-06T01:13:02;100272.34;;;7.07;87.72
75972;BME280;64651;47.540;19.088;2024-03-06T01:18:04;100282.47;;;7.07;87.72
75972;BME280;64651;47.540;19.088;2024-03-06T01:23:07;100276.72;;;6.81;88.33
75972;BME280;64651;47.540;19.088;2024-03-06T01:28:09;100280.00;;;6.83;89.05
75972;BME280;64651;47.540;19.088;2024-03-06T01:33:11;100278.00;;;6.74;89.07
75972;BME280;64651;47.540;19.088;2024-03-06T01:38:13;100286.06;;;6.85;89.51
75972;BME280;64651;47.540;19.088;2024-03-06T01:43:22;100291.69;;;6.74;89.51
75972;BME280;64651;47.540;19.088;2024-03-06T01:48:27;100296.72;;;6.60;90.01
75972;BME280;64651;47.540;19.088;2024-03-06T01:53:31;100292.31;;;6.59;90.45
75972;BME280;64651;47.540;19.088;2024-03-06T01:58:34;100289.69;;;6.64;90.53
75972;BME280;64651;47.540;19.088;2024-03-06T02:03:36;100288.06;;;6.68;90.45
75972;BME280;64651;47.540;19.088;2024-03-06T02:08:38;100287.09;;;6.79;90.06
75972;BME280;64651;47.540;19.088;2024-03-06T02:13:41;100292.59;;;6.58;90.31
75972;BME280;64651;47.540;19.088;2024-03-06T02:18:54;100284.53;;;6.46;90.84
75972;BME280;64651;47.540;19.088;2024-03-06T02:23:56;100286.88;;;6.37;91.36
75972;BME280;64651;47.540;19.088;2024-03-06T02:28:58;100289.88;;;6.36;91.54
75972;BME280;64651;47.540;19.088;2024-03-06T02:34:00;100286.06;;;6.37;91.88
75972;BME280;64651;47.540;19.088;2024-03-06T02:39:06;100287.44;;;6.18;92.18
75972;BME280;64651;47.540;19.088;2024-03-06T02:44:11;100286.69;;;6.00;92.91
75972;BME280;64651;47.540;19.088;2024-03-06T02:49:13;100291.56;;;5.98;93.40
75972;BME280;64651;47.540;19.088;2024-03-06T02:54:15;100285.72;;;5.90;93.72
75972;BME280;64651;47.540;19.088;2024-03-06T02:59:18;100294.81;;;5.79;94.31
75972;BME280;64651;47.540;19.088;2024-03-06T03:04:20;100285.81;;;5.78;94.49
75972;BME280;64651;47.540;19.088;2024-03-06T03:09:23;100286.28;;;5.75;94.45
75972;BME280;64651;47.540;19.088;2024-03-06T03:14:25;100282.41;;;5.71;94.91
75972;BME280;64651;47.540;19.088;2024-03-06T03:19:27;100292.00;;;5.73;95.45
75972;BME280;64651;47.540;19.088;2024-03-06T03:24:30;100283.59;;;5.58;95.84
75972;BME280;64651;47.540;19.088;2024-03-06T03:29:32;100295.81;;;5.56;96.35
75972;BME280;64651;47.540;19.088;2024-03-06T03:34:35;100312.19;;;5.56;96.68
75972;BME280;64651;47.540;19.088;2024-03-06T03:39:37;100304.84;;;5.56;96.51
75972;BME280;64651;47.540;19.088;2024-03-06T03:44:39;100315.91;;;5.50;96.76
75972;BME280;64651;47.540;19.088;2024-03-06T03:49:42;100318.00;;;5.43;96.82
75972;BME280;64651;47.540;19.088;2024-03-06T03:54:46;100327.81;;;5.44;97.00
75972;BME280;64651;47.540;19.088;2024-03-06T03:59:48;100324.44;;;5.37;97.13
75972;BME280;64651;47.540;19.088;2024-03-06T04:04:50;100325.00;;;5.39;97.32
75972;BME280;64651;47.540;19.088;2024-03-06T04:09:53;100330.38;;;5.50;97.39
75972;BME280;64651;47.540;19.088;2024-03-06T04:14:55;100335.84;;;5.34;97.55
75972;BME280;64651;47.540;19.088;2024-03-06T04:19:57;100339.72;;;5.38;97.67
75972;BME280;64651;47.540;19.088;2024-03-06T04:24:59;100335.00;;;5.33;97.91
75972;BME280;64651;47.540;19.088;2024-03-06T04:30:01;100344.03;;;5.34;98.01
75972;BME280;64651;47.540;19.088;2024-03-06T04:35:04;100351.06;;;5.29;98.23
75972;BME280;64651;47.540;19.088;2024-03-06T04:40:07;100348.06;;;5.31;98.10
75972;BME280;64651;47.540;19.088;2024-03-06T04:45:11;100355.69;;;5.29;98.20
75972;BME280;64651;47.540;19.088;2024-03-06T04:50:14;100361.75;;;5.19;98.49
75972;BME280;64651;47.540;19.088;2024-03-06T04:55:18;100354.56;;;5.13;98.51
75972;BME280;64651;47.540;19.088;2024-03-06T05:00:24;100364.69;;;5.01;98.66
75972;BME280;64651;47.540;19.088;2024-03-06T05:05:26;100367.00;;;4.93;99.25
75972;BME280;64651;47.540;19.088;2024-03-06T05:10:46;100372.66;;;5.03;99.04
75972;BME280;64651;47.540;19.088;2024-03-06T05:16:06;100370.97;;;5.30;98.80
75972;BME280;64651;47.540;19.088;2024-03-06T05:21:28;100369.13;;;5.19;98.93
75972;BME280;64651;47.540;19.088;2024-03-06T05:26:47;100379.03;;;5.25;98.46
75972;BME280;64651;47.540;19.088;2024-03-06T05:32:07;100375.53;;;5.24;98.29
75972;BME280;64651;47.540;19.088;2024-03-06T05:37:26;100376.31;;;5.25;98.00
75972;BME280;64651;47.540;19.088;2024-03-06T05:42:47;100383.09;;;5.22;97.81
75972;BME280;64651;47.540;19.088;2024-03-06T05:48:07;100385.25;;;5.20;97.74
75972;BME280;64651;47.540;19.088;2024-03-06T05:53:27;100390.78;;;5.25;97.68
75972;BME280;64651;47.540;19.088;2024-03-06T05:58:48;100399.84;;;5.43;97.32
75972;BME280;64651;47.540;19.088;2024-03-06T06:03:51;100406.22;;;5.48;97.43
75972;BME280;64651;47.540;19.088;2024-03-06T06:08:53;100399.50;;;5.56;97.30
75972;BME280;64651;47.540;19.088;2024-03-06T06:13:55;100394.91;;;5.73;96.88
75972;BME280;64651;47.540;19.088;2024-03-06T06:18:57;100403.19;;;5.95;96.13
75972;BME280;64651;47.540;19.088;2024-03-06T06:24:00;100409.00;;;6.15;95.23
75972;BME280;64651;47.540;19.088;2024-03-06T06:29:02;100399.09;;;6.31;94.24
75972;BME280;64651;47.540;19.088;2024-03-06T06:34:05;100408.25;;;6.41;93.43
75972;BME280;64651;47.540;19.088;2024-03-06T06:39:07;100415.31;;;6.59;92.63
75972;BME280;64651;47.540;19.088;2024-03-06T06:44:10;100416.63;;;6.73;91.79
75972;BME280;64651;47.540;19.088;2024-03-06T06:49:12;100418.44;;;6.89;91.06
75972;BME280;64651;47.540;19.088;2024-03-06T06:54:15;100426.59;;;7.06;90.38
75972;BME280;64651;47.540;19.088;2024-03-06T06:59:17;100427.84;;;7.20;89.63
75972;BME280;64651;47.540;19.088;2024-03-06T07:04:25;100429.72;;;7.42;88.84
75972;BME280;64651;47.540;19.088;2024-03-06T07:09:34;100433.75;;;7.61;87.93
75972;BME280;64651;47.540;19.088;2024-03-06T07:14:36;100429.56;;;7.80;86.69
75972;BME280;64651;47.540;19.088;2024-03-06T07:19:38;100421.59;;;8.10;85.12
75972;BME280;64651;47.540;19.088;2024-03-06T07:24:41;100415.34;;;8.57;83.71
75972;BME280;64651;47.540;19.088;2024-03-06T07:29:44;100418.84;;;9.05;81.76
75972;BME280;64651;47.540;19.088;2024-03-06T07:34:46;100415.12;;;9.76;79.02
75972;BME280;64651;47.540;19.088;2024-03-06T07:39:48;100426.69;;;10.39;75.66
75972;BME280;64651;47.540;19.088;2024-03-06T07:44:54;100426.53;;;10.95;72.76
75972;BME280;64651;47.540;19.088;2024-03-06T07:49:56;100436.19;;;11.47;70.28
75972;BME280;64651;47.540;19.088;2024-03-06T07:54:59;100429.91;;;11.85;68.98
75972;BME280;64651;47.540;19.088;2024-03-06T08:00:02;100435.81;;;12.02;67.10
75972;BME280;64651;47.540;19.088;2024-03-06T08:05:11;100437.75;;;12.02;66.59
75972;BME280;64651;47.540;19.088;2024-03-06T08:10:14;100440.84;;;12.29;64.64
75972;BME280;64651;47.540;19.088;2024-03-06T08:15:19;100438.84;;;12.64;63.48
75972;BME280;64651;47.540;19.088;2024-03-06T08:20:21;100436.09;;;13.11;61.46
75972;BME280;64651;47.540;19.088;2024-03-06T08:25:23;100443.03;;;13.32;60.17
75972;BME280;64651;47.540;19.088;2024-03-06T08:30:25;100438.41;;;13.47;59.23
75972;BME280;64651;47.540;19.088;2024-03-06T08:35:28;100438.34;;;13.52;58.58
75972;BME280;64651;47.540;19.088;2024-03-06T08:40:30;100436.13;;;13.30;60.14
75972;BME280;64651;47.540;19.088;2024-03-06T08:45:32;100440.19;;;14.45;56.11
75972;BME280;64651;47.540;19.088;2024-03-06T08:50:35;100442.75;;;13.90;56.79
75972;BME280;64651;47.540;19.088;2024-03-06T08:55:37;100441.19;;;13.47;57.97
75972;BME280;64651;47.540;19.088;2024-03-06T09:00:43;100426.69;;;17.69;48.82
75972;BME280;64651;47.540;19.088;2024-03-06T09:05:45;100431.16;;;20.27;40.43
75972;BME280;64651;47.540;19.088;2024-03-06T09:10:47;100424.13;;;22.55;36.84
75972;BME280;64651;47.540;19.088;2024-03-06T09:15:49;100419.28;;;23.47;33.93
75972;BME280;64651;47.540;19.088;2024-03-06T09:20:52;100417.13;;;24.94;31.02
75972;BME280;64651;47.540;19.088;2024-03-06T09:25:54;100415.19;;;23.60;32.34
75972;BME280;64651;47.540;19.088;2024-03-06T09:30:56;100417.47;;;19.80;38.58
75972;BME280;64651;47.540;19.088;2024-03-06T09:35:59;100418.41;;;20.38;36.90
75972;BME280;64651;47.540;19.088;2024-03-06T09:41:01;100412.56;;;21.61;35.06
75972;BME280;64651;47.540;19.088;2024-03-06T09:46:04;100416.94;;;21.34;35.11
75972;BME280;64651;47.540;19.088;2024-03-06T09:51:06;100404.62;;;25.44;29.25
75972;BME280;64651;47.540;19.088;2024-03-06T09:56:09;100406.19;;;23.03;31.84
75972;BME280;64651;47.540;19.088;2024-03-06T10:01:13;100401.81;;;24.49;30.00
75972;BME280;64651;47.540;19.088;2024-03-06T10:06:16;100386.97;;;26.03;28.39
75972;BME280;64651;47.540;19.088;2024-03-06T10:11:18;100397.53;;;24.17;29.68
75972;BME280;64651;47.540;19.088;2024-03-06T10:16:21;100389.53;;;24.38;30.04
75972;BME280;64651;47.540;19.088;2024-03-06T10:21:31;100385.34;;;26.76;27.06
75972;BME280;64651;47.540;19.088;2024-03-06T10:26:37;100385.63;;;25.11;29.36
75972;BME280;64651;47.540;19.088;2024-03-06T10:31:39;100393.06;;;24.77;30.35
75972;BME280;64651;47.540;19.088;2024-03-06T10:36:44;100379.09;;;26.53;27.61
75972;BME280;64651;47.540;19.088;2024-03-06T10:41:53;100382.94;;;25.18;29.36
75972;BME280;64651;47.540;19.088;2024-03-06T10:47:09;100375.41;;;25.56;28.84
75972;BME280;64651;47.540;19.088;2024-03-06T10:52:12;100353.97;;;31.14;22.21
75972;BME280;64651;47.540;19.088;2024-03-06T10:57:19;100344.47;;;30.24;23.21
75972;BME280;64651;47.540;19.088;2024-03-06T11:02:23;100352.09;;;27.54;26.00
75972;BME280;64651;47.540;19.088;2024-03-06T11:07:25;100330.94;;;25.68;27.84
75972;BME280;64651;47.540;19.088;2024-03-06T11:12:35;100342.13;;;23.25;31.52
75972;BME280;64651;47.540;19.088;2024-03-06T11:17:38;100337.72;;;22.30;33.38
75972;BME280;64651;47.540;19.088;2024-03-06T11:28:10;100316.41;;;23.23;31.96
75972;BME280;64651;47.540;19.088;2024-03-06T11:33:14;100316.66;;;22.83;32.78
75972;BME280;64651;47.540;19.088;2024-03-06T11:38:20;100312.44;;;22.73;32.91
75972;BME280;64651;47.540;19.088;2024-03-06T11:43:27;100297.19;;;27.55;26.56
75972;BME280;64651;47.540;19.088;2024-03-06T11:48:30;100305.91;;;24.16;30.50
75972;BME280;64651;47.540;19.088;2024-03-06T11:53:33;100316.09;;;23.82;31.23
75972;BME280;64651;47.540;19.088;2024-03-06T11:58:41;100306.31;;;21.80;33.87
75972;BME280;64651;47.540;19.088;2024-03-06T12:03:46;100293.81;;;21.78;34.58
75972;BME280;64651;47.540;19.088;2024-03-06T12:08:49;100286.41;;;24.04;31.17
75972;BME280;64651;47.540;19.088;2024-03-06T12:13:51;100289.41;;;24.83;29.78
75972;BME280;64651;47.540;19.088;2024-03-06T12:18:55;100284.81;;;24.03;31.05
75972;BME280;64651;47.540;19.088;2024-03-06T12:24:09;100290.38;;;23.61;31.21
75972;BME280;64651;47.540;19.088;2024-03-06T12:29:11;100283.38;;;24.12;30.80
75972;BME280;64651;47.540;19.088;2024-03-06T12:34:14;100273.28;;;26.33;27.64
75972;BME280;64651;47.540;19.088;2024-03-06T12:39:20;100273.94;;;24.01;29.96
75972;BME280;64651;47.540;19.088;2024-03-06T12:44:25;100266.97;;;22.20;32.72
75972;BME280;64651;47.540;19.088;2024-03-06T12:49:29;100266.31;;;24.96;29.56
75972;BME280;64651;47.540;19.088;2024-03-06T12:54:31;100237.88;;;31.76;21.30
75972;BME280;64651;47.540;19.088;2024-03-06T12:59:33;100234.13;;;33.30;19.49
75972;BME280;64651;47.540;19.088;2024-03-06T13:04:35;100239.91;;;30.67;21.26
75972;BME280;64651;47.540;19.088;2024-03-06T13:09:38;100234.22;;;32.56;19.89
75972;BME280;64651;47.540;19.088;2024-03-06T13:14:40;100228.16;;;34.48;18.34
75972;BME280;64651;47.540;19.088;2024-03-06T13:19:42;100234.66;;;27.85;24.29
75972;BME280;64651;47.540;19.088;2024-03-06T13:24:45;100258.47;;;22.33;35.89
75972;BME280;64651;47.540;19.088;2024-03-06T13:29:53;100274.72;;;12.75;100.00
75972;BME280;64651;47.540;19.088;2024-03-06T13:34:57;100265.94;;;12.06;100.00
75972;BME280;64651;47.540;19.088;2024-03-06T13:39:59;100260.22;;;11.98;100.00
75972;BME280;64651;47.540;19.088;2024-03-06T13:45:03;100254.19;;;11.96;100.00
75972;BME280;64651;47.540;19.088;2024-03-06T13:50:10;100246.50;;;12.40;100.00
75972;BME280;64651;47.540;19.088;2024-03-06T13:55:13;100237.97;;;12.98;100.00
75972;BME280;64651;47.540;19.088;2024-03-06T14:00:24;100234.97;;;12.94;100.00
75972;BME280;64651;47.540;19.088;2024-03-06T14:05:26;100233.19;;;13.22;100.00
75972;BME280;64651;47.540;19.088;2024-03-06T14:10:29;100229.56;;;13.40;100.00
75972;BME280;64651;47.540;19.088;2024-03-06T14:15:35;100231.16;;;13.09;100.00
75972;BME280;64651;47.540;19.088;2024-03-06T14:20:40;100230.81;;;12.36;100.00
75972;BME280;64651;47.540;19.088;2024-03-06T14:25:42;100231.38;;;12.94;100.00
75972;BME280;64651;47.540;19.088;2024-03-06T14:30:44;100219.66;;;13.02;100.00
75972;BME280;64651;47.540;19.088;2024-03-06T14:35:47;100232.19;;;12.76;100.00
75972;BME280;64651;47.540;19.088;2024-03-06T14:40:51;100236.87;;;12.56;100.00
75972;BME280;64651;47.540;19.088;2024-03-06T14:45:53;100225.53;;;15.11;100.00
75972;BME280;64651;47.540;19.088;2024-03-06T14:50:55;100223.53;;;14.89;100.00
75972;BME280;64651;47.540;19.088;2024-03-06T14:55:58;100216.22;;;15.29;100.00
75972;BME280;64651;47.540;19.088;2024-03-06T15:01:00;100202.91;;;17.78;100.00
75972;BME280;64651;47.540;19.088;2024-03-06T15:06:03;100206.63;;;16.36;100.00
75972;BME280;64651;47.540;19.088;2024-03-06T15:11:06;100206.72;;;14.85;100.00
75972;BME280;64651;47.540;19.088;2024-03-06T15:16:10;100210.19;;;14.55;100.00
75972;BME280;64651;47.540;19.088;2024-03-06T15:21:12;100208.06;;;14.25;100.00
75972;BME280;64651;47.540;19.088;2024-03-06T15:26:14;100209.34;;;15.04;100.00
75972;BME280;64651;47.540;19.088;2024-03-06T15:31:16;100209.69;;;14.53;100.00
75972;BME280;64651;47.540;19.088;2024-03-06T15:36:19;100215.53;;;14.24;100.00
75972;BME280;64651;47.540;19.088;2024-03-06T15:41:23;100211.78;;;16.12;100.00
75972;BME280;64651;47.540;19.088;2024-03-06T15:46:25;100218.03;;;16.91;96.77
75972;BME280;64651;47.540;19.088;2024-03-06T15:51:28;100213.94;;;16.23;87.61
75972;BME280;64651;47.540;19.088;2024-03-06T15:56:30;100211.94;;;15.67;83.41
75972;BME280;64651;47.540;19.088;2024-03-06T16:01:36;100221.09;;;15.32;77.55
75972;BME280;64651;47.540;19.088;2024-03-06T16:06:39;100227.28;;;15.07;73.76
75972;BME280;64651;47.540;19.088;2024-03-06T16:11:43;100218.47;;;14.69;67.78
75972;BME280;64651;47.540;19.088;2024-03-06T16:16:45;100229.66;;;14.22;63.65
75972;BME280;64651;47.540;19.088;2024-03-06T16:21:49;100226.87;;;13.81;64.00
75972;BME280;64651;47.540;19.088;2024-03-06T16:26:51;100229.94;;;13.80;66.25
75972;BME280;64651;47.540;19.088;2024-03-06T16:31:54;100235.34;;;13.58;65.22
75972;BME280;64651;47.540;19.088;2024-03-06T16:36:56;100243.81;;;13.48;67.84
75972;BME280;64651;47.540;19.088;2024-03-06T16:41:58;100251.91;;;13.25;67.42
75972;BME280;64651;47.540;19.088;2024-03-06T16:47:00;100258.63;;;13.19;67.02
75972;BME280;64651;47.540;19.088;2024-03-06T16:52:03;100263.72;;;13.12;67.17
75972;BME280;64651;47.540;19.088;2024-03-06T16:57:05;100266.78;;;13.11;66.14
75972;BME280;64651;47.540;19.088;2024-03-06T17:02:08;100274.78;;;13.12;63.57
75972;BME280;64651;47.540;19.088;2024-03-06T17:07:10;100274.00;;;13.25;63.70
75972;BME280;64651;47.540;19.088;2024-03-06T17:12:13;100270.87;;;13.13;62.95
75972;BME280;64651;47.540;19.088;2024-03-06T17:17:15;100291.06;;;13.14;63.76
75972;BME280;64651;47.540;19.088;2024-03-06T17:22:18;100288.41;;;13.04;63.90
75972;BME280;64651;47.540;19.088;2024-03-06T17:27:20;100297.19;;;12.87;64.62
75972;BME280;64651;47.540;19.088;2024-03-06T17:32:23;100297.28;;;12.82;67.36
75972;BME280;64651;47.540;19.088;2024-03-06T17:37:29;100299.56;;;12.56;67.72
75972;BME280;64651;47.540;19.088;2024-03-06T17:42:32;100303.91;;;12.38;68.77
75972;BME280;64651;47.540;19.088;2024-03-06T17:47:34;100310.28;;;12.10;70.74
75972;BME280;64651;47.540;19.088;2024-03-06T17:52:37;100304.41;;;11.93;72.38
75972;BME280;64651;47.540;19.088;2024-03-06T17:57:39;100310.12;;;11.67;71.94
75972;BME280;64651;47.540;19.088;2024-03-06T18:02:49;100315.47;;;11.54;70.97
75972;BME280;64651;47.540;19.088;2024-03-06T18:07:53;100315.78;;;11.47;70.22
75972;BME280;64651;47.540;19.088;2024-03-06T18:12:57;100316.84;;;11.56;70.85
75972;BME280;64651;47.540;19.088;2024-03-06T18:17:59;100316.84;;;11.56;72.13
75972;BME280;64651;47.540;19.088;2024-03-06T18:23:02;100316.91;;;11.46;74.31
75972;BME280;64651;47.540;19.088;2024-03-06T18:28:04;100329.09;;;11.40;74.23
75972;BME280;64651;47.540;19.088;2024-03-06T18:33:07;100328.59;;;11.33;75.15
75972;BME280;64651;47.540;19.088;2024-03-06T18:38:09;100337.03;;;11.42;75.51
75972;BME280;64651;47.540;19.088;2024-03-06T18:43:11;100330.16;;;11.44;75.79
75972;BME280;64651;47.540;19.088;2024-03-06T18:48:13;100342.69;;;11.60;75.75
75972;BME280;64651;47.540;19.088;2024-03-06T18:53:16;100342.78;;;11.50;76.02
75972;BME280;64651;47.540;19.088;2024-03-06T18:58:18;100355.44;;;11.51;75.68
75972;BME280;64651;47.540;19.088;2024-03-06T19:03:20;100374.88;;;11.70;75.13
75972;BME280;64651;47.540;19.088;2024-03-06T19:08:23;100375.34;;;11.82;75.19
75972;BME280;64651;47.540;19.088;2024-03-06T19:13:27;100376.78;;;11.74;74.78
75972;BME280;64651;47.540;19.088;2024-03-06T19:18:30;100394.97;;;11.75;76.32
75972;BME280;64651;47.540;19.088;2024-03-06T19:23:32;100386.88;;;11.50;77.85
75972;BME280;64651;47.540;19.088;2024-03-06T19:28:35;100392.81;;;11.23;77.44
75972;BME280;64651;47.540;19.088;2024-03-06T19:33:37;100403.78;;;11.33;75.77
75972;BME280;64651;47.540;19.088;2024-03-06T19:38:39;100410.22;;;11.14;75.46
75972;BME280;64651;47.540;19.088;2024-03-06T19:43:42;100407.41;;;11.24;74.12
75972;BME280;64651;47.540;19.088;2024-03-06T19:48:44;100415.72;;;11.14;75.15
75972;BME280;64651;47.540;19.088;2024-03-06T19:53:47;100418.66;;;10.73;78.23
75972;BME280;64651;47.540;19.088;2024-03-06T19:58:51;100421.97;;;10.65;80.60
75972;BME280;64651;47.540;19.088;2024-03-06T20:03:53;100433.81;;;10.55;82.62
75972;BME280;64651;47.540;19.088;2024-03-06T20:08:59;100442.31;;;10.64;82.79
75972;BME280;64651;47.540;19.088;2024-03-06T20:14:01;100435.16;;;10.73;82.47
75972;BME280;64651;47.540;19.088;2024-03-06T20:19:03;100436.78;;;10.74;82.45
75972;BME280;64651;47.540;19.088;2024-03-06T20:24:06;100445.06;;;10.79;82.73
75972;BME280;64651;47.540;19.088;2024-03-06T20:29:11;100446.09;;;10.88;81.55
75972;BME280;64651;47.540;19.088;2024-03-06T20:34:13;100445.84;;;10.85;81.05
75972;BME280;64651;47.540;19.088;2024-03-06T20:39:17;100447.25;;;10.72;81.59
75972;BME280;64651;47.540;19.088;2024-03-06T20:44:19;100434.59;;;10.76;81.95
75972;BME280;64651;47.540;19.088;2024-03-06T20:49:21;100423.06;;;10.64;80.76
75972;BME280;64651;47.540;19.088;2024-03-06T20:54:24;100420.09;;;10.45;80.66
75972;BME280;64651;47.540;19.088;2024-03-06T20:59:26;100415.16;;;10.32;80.89
75972;BME280;64651;47.540;19.088;2024-03-06T21:04:28;100423.69;;;10.36;81.32
75972;BME280;64651;47.540;19.088;2024-03-06T21:09:31;100424.50;;;10.41;80.36
75972;BME280;64651;47.540;19.088;2024-03-06T21:14:34;100413.22;;;10.48;79.90
75972;BME280;64651;47.540;19.088;2024-03-06T21:19:38;100429.16;;;10.46;80.22
75972;BME280;64651;47.540;19.088;2024-03-06T21:24:40;100416.50;;;10.50;80.69
75972;BME280;64651;47.540;19.088;2024-03-06T21:29:46;100421.44;;;10.53;79.90
75972;BME280;64651;47.540;19.088;2024-03-06T21:34:49;100424.75;;;10.45;80.03
75972;BME280;64651;47.540;19.088;2024-03-06T21:39:51;100427.81;;;10.33;79.90
75972;BME280;64651;47.540;19.088;2024-03-06T21:44:53;100415.97;;;10.12;80.54
75972;BME280;64651;47.540;19.088;2024-03-06T21:49:56;100420.37;;;10.03;81.65
75972;BME280;64651;47.540;19.088;2024-03-06T21:54:58;100437.41;;;9.95;81.72
75972;BME280;64651;47.540;19.088;2024-03-06T22:00:00;100429.16;;;9.90;81.91
75972;BME280;64651;47.540;19.088;2024-03-06T22:05:03;100426.97;;;9.92;81.88
75972;BME280;64651;47.540;19.088;2024-03-06T22:10:05;100443.72;;;9.96;80.90
75972;BME280;64651;47.540;19.088;2024-03-06T22:15:09;100431.34;;;9.88;80.25
75972;BME280;64651;47.540;19.088;2024-03-06T22:20:12;100433.00;;;9.89;79.91
75972;BME280;64651;47.540;19.088;2024-03-06T22:25:15;100439.03;;;9.76;80.04
75972;BME280;64651;47.540;19.088;2024-03-06T22:30:18;100433.00;;;9.89;80.23
75972;BME280;64651;47.540;19.088;2024-03-06T22:35:20;100434.09;;;9.88;79.62
75972;BME280;64651;47.540;19.088;2024-03-06T22:40:22;100430.78;;;9.76;80.50
75972;BME280;64651;47.540;19.088;2024-03-06T22:45:24;100434.09;;;9.83;81.21
75972;BME280;64651;47.540;19.088;2024-03-06T22:50:26;100438.50;;;9.89;80.43
75972;BME280;64651;47.540;19.088;2024-03-06T22:55:29;100425.59;;;9.95;80.03
75972;BME280;64651;47.540;19.088;2024-03-06T23:00:31;100438.81;;;9.93;79.80
75972;BME280;64651;47.540;19.088;2024-03-06T23:05:42;100433.56;;;9.81;79.87
75972;BME280;64651;47.540;19.088;2024-03-06T23:10:45;100432.47;;;9.87;80.38
75972;BME280;64651;47.540;19.088;2024-03-06T23:15:47;100434.66;;;9.90;80.88
75972;BME280;64651;47.540;19.088;2024-03-06T23:20:50;100426.44;;;9.85;80.40
75972;BME280;64651;47.540;19.088;2024-03-06T23:25:53;100428.59;;;9.88;79.03
75972;BME280;64651;47.540;19.088;2024-03-06T23:30:55;100426.16;;;10.12;78.00
75972;BME280;64651;47.540;19.088;2024-03-06T23:35:57;100436.06;;;10.23;76.25
75972;BME280;64651;47.540;19.088;2024-03-06T23:40:59;100440.47;;;10.24;74.94
75972;BME280;64651;47.540;19.088;2024-03-06T23:46:02;100436.59;;;10.25;75.02
75972;BME280;64651;47.540;19.088;2024-03-06T23:51:04;100436.91;;;10.29;74.97
75972;BME280;64651;47.540;19.088;2024-03-06T23:56:06;100430.00;;;10.16;74.49
